sensor_id;sensor_type;location;lat;lon;timestamp;P1;durP1;ratioP1;P2;durP2;ratioP2
27163;SDS011;14685;50.618;7.024;2023-05-10T00:02:19;0.65;;;0.60;;
27163;SDS011;14685;50.618;7.024;2023-05-10T00:04:47;1.10;;;0.52;;
27163;SDS011;14685;50.618;7.024;2023-05-10T00:07:15;0.60;;;0.60;;
27163;SDS011;14685;50.618;7.024;2023-05-10T00:09:43;1.00;;;0.82;;
27163;SDS011;14685;50.618;7.024;2023-05-10T00:12:10;0.88;;;0.50;;
27163;SDS011;14685;50.618;7.024;2023-05-10T00:14:38;1.20;;;0.50;;
27163;SDS011;14685;50.618;7.024;2023-05-10T00:17:05;0.70;;;0.65;;
27163;SDS011;14685;50.618;7.024;2023-05-10T00:19:32;0.98;;;0.77;;
27163;SDS011;14685;50.618;7.024;2023-05-10T00:22:00;1.35;;;0.70;;
27163;SDS011;14685;50.618;7.024;2023-05-10T00:24:28;1.85;;;0.82;;
27163;SDS011;14685;50.618;7.024;2023-05-10T00:26:56;0.73;;;0.52;;
27163;SDS011;14685;50.618;7.024;2023-05-10T00:29:23;0.57;;;0.57;;
27163;SDS011;14685;50.618;7.024;2023-05-10T00:31:50;0.63;;;0.63;;
27163;SDS011;14685;50.618;7.024;2023-05-10T00:34:20;0.90;;;0.60;;
27163;SDS011;14685;50.618;7.024;2023-05-10T00:36:48;0.95;;;0.60;;
27163;SDS011;14685;50.618;7.024;2023-05-10T00:39:15;0.85;;;0.70;;
27163;SDS011;14685;50.618;7.024;2023-05-10T00:41:42;0.75;;;0.68;;
27163;SDS011;14685;50.618;7.024;2023-05-10T00:44:09;1.10;;;0.50;;
27163;SDS011;14685;50.618;7.024;2023-05-10T00:46:36;0.63;;;0.60;;
27163;SDS011;14685;50.618;7.024;2023-05-10T00:49:03;1.80;;;0.55;;
27163;SDS011;14685;50.618;7.024;2023-05-10T00:51:30;1.38;;;0.70;;
27163;SDS011;14685;50.618;7.024;2023-05-10T00:53:58;1.10;;;0.80;;
27163;SDS011;14685;50.618;7.024;2023-05-10T00:56:25;0.77;;;0.60;;
27163;SDS011;14685;50.618;7.024;2023-05-10T00:58:54;2.65;;;0.70;;
27163;SDS011;14685;50.618;7.024;2023-05-10T01:01:22;0.50;;;0.50;;
27163;SDS011;14685;50.618;7.024;2023-05-10T01:03:49;1.25;;;0.77;;
27163;SDS011;14685;50.618;7.024;2023-05-10T01:06:16;1.27;;;0.50;;
27163;SDS011;14685;50.618;7.024;2023-05-10T01:08:43;0.95;;;0.60;;
27163;SDS011;14685;50.618;7.024;2023-05-10T01:11:10;0.95;;;0.70;;
27163;SDS011;14685;50.618;7.024;2023-05-10T01:13:38;2.00;;;0.80;;
27163;SDS011;14685;50.618;7.024;2023-05-10T01:16:07;1.58;;;0.70;;
27163;SDS011;14685;50.618;7.024;2023-05-10T01:18:38;1.65;;;0.82;;
27163;SDS011;14685;50.618;7.024;2023-05-10T01:35:06;0.70;;;0.70;;
27163;SDS011;14685;50.618;7.024;2023-05-10T01:37:38;0.63;;;0.63;;
27163;SDS011;14685;50.618;7.024;2023-05-10T01:40:14;2.38;;;0.70;;
27163;SDS011;14685;50.618;7.024;2023-05-10T01:42:53;0.88;;;0.88;;
27163;SDS011;14685;50.618;7.024;2023-05-10T01:45:31;2.00;;;0.73;;
27163;SDS011;14685;50.618;7.024;2023-05-10T01:48:10;2.63;;;0.75;;
27163;SDS011;14685;50.618;7.024;2023-05-10T01:50:39;0.60;;;0.60;;
27163;SDS011;14685;50.618;7.024;2023-05-10T01:53:11;0.95;;;0.68;;
27163;SDS011;14685;50.618;7.024;2023-05-10T01:55:49;0.73;;;0.70;;
27163;SDS011;14685;50.618;7.024;2023-05-10T01:58:27;1.85;;;0.70;;
27163;SDS011;14685;50.618;7.024;2023-05-10T02:00:58;1.60;;;0.60;;
27163;SDS011;14685;50.618;7.024;2023-05-10T02:03:28;0.95;;;0.70;;
27163;SDS011;14685;50.618;7.024;2023-05-10T02:05:56;1.58;;;0.82;;
27163;SDS011;14685;50.618;7.024;2023-05-10T02:08:23;0.70;;;0.70;;
27163;SDS011;14685;50.618;7.024;2023-05-10T02:10:52;0.80;;;0.80;;
27163;SDS011;14685;50.618;7.024;2023-05-10T02:13:21;0.90;;;0.65;;
27163;SDS011;14685;50.618;7.024;2023-05-10T02:15:51;0.70;;;0.70;;
27163;SDS011;14685;50.618;7.024;2023-05-10T02:18:19;0.70;;;0.70;;
27163;SDS011;14685;50.618;7.024;2023-05-10T02:20:47;0.70;;;0.70;;
27163;SDS011;14685;50.618;7.024;2023-05-10T02:23:16;0.77;;;0.70;;
27163;SDS011;14685;50.618;7.024;2023-05-10T02:25:44;0.70;;;0.60;;
27163;SDS011;14685;50.618;7.024;2023-05-10T02:28:12;0.70;;;0.70;;
27163;SDS011;14685;50.618;7.024;2023-05-10T02:30:41;2.00;;;0.77;;
27163;SDS011;14685;50.618;7.024;2023-05-10T02:33:09;0.70;;;0.70;;
27163;SDS011;14685;50.618;7.024;2023-05-10T02:35:37;2.58;;;0.73;;
27163;SDS011;14685;50.618;7.024;2023-05-10T02:38:04;0.85;;;0.85;;
27163;SDS011;14685;50.618;7.024;2023-05-10T02:40:32;1.08;;;1.05;;
27163;SDS011;14685;50.618;7.024;2023-05-10T02:43:02;0.80;;;0.80;;
27163;SDS011;14685;50.618;7.024;2023-05-10T02:45:31;1.13;;;0.80;;
27163;SDS011;14685;50.618;7.024;2023-05-10T02:48:00;0.80;;;0.80;;
27163;SDS011;14685;50.618;7.024;2023-05-10T02:50:27;1.05;;;0.70;;
27163;SDS011;14685;50.618;7.024;2023-05-10T02:52:59;0.90;;;0.90;;
27163;SDS011;14685;50.618;7.024;2023-05-10T02:55:31;0.93;;;0.93;;
27163;SDS011;14685;50.618;7.024;2023-05-10T02:58:04;3.10;;;1.80;;
27163;SDS011;14685;50.618;7.024;2023-05-10T03:00:31;1.73;;;1.52;;
27163;SDS011;14685;50.618;7.024;2023-05-10T03:03:00;2.15;;;1.50;;
27163;SDS011;14685;50.618;7.024;2023-05-10T03:05:27;3.30;;;2.00;;
27163;SDS011;14685;50.618;7.024;2023-05-10T03:07:55;3.33;;;2.35;;
27163;SDS011;14685;50.618;7.024;2023-05-10T03:10:27;3.55;;;2.90;;
27163;SDS011;14685;50.618;7.024;2023-05-10T03:12:59;2.50;;;2.23;;
27163;SDS011;14685;50.618;7.024;2023-05-10T03:15:42;6.55;;;2.70;;
27163;SDS011;14685;50.618;7.024;2023-05-10T03:18:44;4.30;;;3.05;;
27163;SDS011;14685;50.618;7.024;2023-05-10T03:21:17;4.25;;;2.70;;
27163;SDS011;14685;50.618;7.024;2023-05-10T03:23:54;3.92;;;3.60;;
27163;SDS011;14685;50.618;7.024;2023-05-10T03:26:27;3.58;;;3.28;;
27163;SDS011;14685;50.618;7.024;2023-05-10T03:28:55;4.45;;;3.33;;
27163;SDS011;14685;50.618;7.024;2023-05-10T03:31:25;4.72;;;3.10;;
27163;SDS011;14685;50.618;7.024;2023-05-10T03:33:52;6.50;;;4.00;;
27163;SDS011;14685;50.618;7.024;2023-05-10T03:36:20;7.72;;;4.13;;
27163;SDS011;14685;50.618;7.024;2023-05-10T03:38:47;3.85;;;3.45;;
27163;SDS011;14685;50.618;7.024;2023-05-10T03:41:16;3.95;;;3.60;;
27163;SDS011;14685;50.618;7.024;2023-05-10T03:43:44;6.78;;;4.13;;
27163;SDS011;14685;50.618;7.024;2023-05-10T03:46:11;5.30;;;4.03;;
27163;SDS011;14685;50.618;7.024;2023-05-10T03:48:38;4.88;;;3.65;;
27163;SDS011;14685;50.618;7.024;2023-05-10T03:51:05;7.10;;;4.18;;
27163;SDS011;14685;50.618;7.024;2023-05-10T03:53:32;4.93;;;3.13;;
27163;SDS011;14685;50.618;7.024;2023-05-10T03:56:00;4.43;;;3.80;;
27163;SDS011;14685;50.618;7.024;2023-05-10T03:58:27;6.70;;;3.60;;
27163;SDS011;14685;50.618;7.024;2023-05-10T04:00:57;4.78;;;3.58;;
27163;SDS011;14685;50.618;7.024;2023-05-10T04:03:27;4.97;;;4.05;;
27163;SDS011;14685;50.618;7.024;2023-05-10T04:06:01;5.20;;;3.88;;
27163;SDS011;14685;50.618;7.024;2023-05-10T04:08:28;4.68;;;3.58;;
27163;SDS011;14685;50.618;7.024;2023-05-10T04:11:17;4.22;;;3.20;;
27163;SDS011;14685;50.618;7.024;2023-05-10T04:13:44;6.40;;;3.03;;
27163;SDS011;14685;50.618;7.024;2023-05-10T04:16:10;4.95;;;3.40;;
27163;SDS011;14685;50.618;7.024;2023-05-10T04:18:37;5.22;;;3.30;;
27163;SDS011;14685;50.618;7.024;2023-05-10T04:21:11;4.82;;;3.78;;
27163;SDS011;14685;50.618;7.024;2023-05-10T04:23:39;4.53;;;3.20;;
27163;SDS011;14685;50.618;7.024;2023-05-10T04:26:10;3.58;;;3.25;;
27163;SDS011;14685;50.618;7.024;2023-05-10T04:28:38;5.88;;;3.45;;
27163;SDS011;14685;50.618;7.024;2023-05-10T04:31:06;5.07;;;3.30;;
27163;SDS011;14685;50.618;7.024;2023-05-10T04:33:36;3.30;;;3.00;;
27163;SDS011;14685;50.618;7.024;2023-05-10T04:36:03;4.07;;;3.20;;
27163;SDS011;14685;50.618;7.024;2023-05-10T04:38:31;3.33;;;2.58;;
27163;SDS011;14685;50.618;7.024;2023-05-10T04:41:08;3.10;;;2.80;;
27163;SDS011;14685;50.618;7.024;2023-05-10T04:43:36;4.70;;;3.40;;
27163;SDS011;14685;50.618;7.024;2023-05-10T04:46:04;3.53;;;3.22;;
27163;SDS011;14685;50.618;7.024;2023-05-10T04:48:31;3.70;;;3.13;;
27163;SDS011;14685;50.618;7.024;2023-05-10T04:50:59;10.55;;;6.22;;
27163;SDS011;14685;50.618;7.024;2023-05-10T04:53:26;6.97;;;4.20;;
27163;SDS011;14685;50.618;7.024;2023-05-10T04:55:54;5.13;;;3.05;;
27163;SDS011;14685;50.618;7.024;2023-05-10T04:58:21;2.53;;;2.33;;
27163;SDS011;14685;50.618;7.024;2023-05-10T05:00:49;2.33;;;2.13;;
27163;SDS011;14685;50.618;7.024;2023-05-10T05:03:16;2.30;;;2.10;;
27163;SDS011;14685;50.618;7.024;2023-05-10T05:05:45;5.10;;;2.33;;
27163;SDS011;14685;50.618;7.024;2023-05-10T05:08:12;3.45;;;1.90;;
27163;SDS011;14685;50.618;7.024;2023-05-10T05:10:39;5.13;;;3.75;;
27163;SDS011;14685;50.618;7.024;2023-05-10T05:13:06;3.22;;;2.47;;
27163;SDS011;14685;50.618;7.024;2023-05-10T05:15:35;2.55;;;1.95;;
27163;SDS011;14685;50.618;7.024;2023-05-10T05:18:02;3.65;;;2.40;;
27163;SDS011;14685;50.618;7.024;2023-05-10T05:20:31;2.00;;;1.90;;
27163;SDS011;14685;50.618;7.024;2023-05-10T05:23:01;4.90;;;2.10;;
27163;SDS011;14685;50.618;7.024;2023-05-10T05:25:32;2.53;;;1.90;;
27163;SDS011;14685;50.618;7.024;2023-05-10T05:27:59;3.88;;;1.70;;
27163;SDS011;14685;50.618;7.024;2023-05-10T05:30:26;2.20;;;2.00;;
27163;SDS011;14685;50.618;7.024;2023-05-10T05:32:53;2.22;;;1.83;;
27163;SDS011;14685;50.618;7.024;2023-05-10T05:35:22;1.73;;;1.63;;
27163;SDS011;14685;50.618;7.024;2023-05-10T05:37:52;2.42;;;1.70;;
27163;SDS011;14685;50.618;7.024;2023-05-10T05:40:19;2.90;;;1.83;;
27163;SDS011;14685;50.618;7.024;2023-05-10T05:42:46;6.75;;;2.10;;
27163;SDS011;14685;50.618;7.024;2023-05-10T05:45:15;2.50;;;1.77;;
27163;SDS011;14685;50.618;7.024;2023-05-10T05:47:42;1.67;;;1.58;;
27163;SDS011;14685;50.618;7.024;2023-05-10T05:50:09;2.13;;;1.92;;
27163;SDS011;14685;50.618;7.024;2023-05-10T05:52:38;1.98;;;1.80;;
27163;SDS011;14685;50.618;7.024;2023-05-10T05:55:05;1.80;;;1.70;;
27163;SDS011;14685;50.618;7.024;2023-05-10T05:57:32;3.85;;;2.35;;
27163;SDS011;14685;50.618;7.024;2023-05-10T06:00:00;5.30;;;2.10;;
27163;SDS011;14685;50.618;7.024;2023-05-10T06:02:30;4.25;;;2.47;;
27163;SDS011;14685;50.618;7.024;2023-05-10T06:04:57;5.20;;;2.50;;
27163;SDS011;14685;50.618;7.024;2023-05-10T06:07:24;3.35;;;2.72;;
27163;SDS011;14685;50.618;7.024;2023-05-10T06:09:52;3.70;;;2.65;;
27163;SDS011;14685;50.618;7.024;2023-05-10T06:12:19;4.10;;;2.72;;
27163;SDS011;14685;50.618;7.024;2023-05-10T06:14:49;4.80;;;2.40;;
27163;SDS011;14685;50.618;7.024;2023-05-10T06:17:16;3.10;;;2.80;;
27163;SDS011;14685;50.618;7.024;2023-05-10T06:19:43;3.22;;;2.92;;
27163;SDS011;14685;50.618;7.024;2023-05-10T06:22:11;5.47;;;3.28;;
27163;SDS011;14685;50.618;7.024;2023-05-10T06:24:38;5.53;;;2.92;;
27163;SDS011;14685;50.618;7.024;2023-05-10T06:27:05;3.83;;;3.20;;
27163;SDS011;14685;50.618;7.024;2023-05-10T06:29:32;4.32;;;3.00;;
27163;SDS011;14685;50.618;7.024;2023-05-10T06:31:59;3.67;;;3.28;;
27163;SDS011;14685;50.618;7.024;2023-05-10T06:34:27;6.38;;;4.00;;
27163;SDS011;14685;50.618;7.024;2023-05-10T06:36:55;4.43;;;4.03;;
27163;SDS011;14685;50.618;7.024;2023-05-10T06:39:22;5.32;;;3.58;;
27163;SDS011;14685;50.618;7.024;2023-05-10T06:41:50;6.53;;;4.40;;
27163;SDS011;14685;50.618;7.024;2023-05-10T06:44:17;7.57;;;4.50;;
27163;SDS011;14685;50.618;7.024;2023-05-10T06:46:44;5.50;;;4.30;;
27163;SDS011;14685;50.618;7.024;2023-05-10T06:49:10;4.05;;;3.63;;
27163;SDS011;14685;50.618;7.024;2023-05-10T06:51:37;4.63;;;3.65;;
27163;SDS011;14685;50.618;7.024;2023-05-10T06:54:05;4.00;;;3.50;;
27163;SDS011;14685;50.618;7.024;2023-05-10T06:56:32;5.13;;;3.97;;
27163;SDS011;14685;50.618;7.024;2023-05-10T06:59:00;8.70;;;4.60;;
27163;SDS011;14685;50.618;7.024;2023-05-10T07:01:27;5.57;;;4.15;;
27163;SDS011;14685;50.618;7.024;2023-05-10T07:03:54;6.43;;;4.10;;
27163;SDS011;14685;50.618;7.024;2023-05-10T07:06:22;6.20;;;4.65;;
27163;SDS011;14685;50.618;7.024;2023-05-10T07:08:59;4.93;;;4.22;;
27163;SDS011;14685;50.618;7.024;2023-05-10T07:11:26;6.43;;;4.32;;
27163;SDS011;14685;50.618;7.024;2023-05-10T07:13:53;4.30;;;3.45;;
27163;SDS011;14685;50.618;7.024;2023-05-10T07:16:20;4.43;;;2.72;;
27163;SDS011;14685;50.618;7.024;2023-05-10T07:18:49;5.15;;;2.55;;
27163;SDS011;14685;50.618;7.024;2023-05-10T07:21:16;4.25;;;2.35;;
27163;SDS011;14685;50.618;7.024;2023-05-10T07:23:44;2.53;;;2.00;;
27163;SDS011;14685;50.618;7.024;2023-05-10T07:26:10;4.22;;;2.28;;
27163;SDS011;14685;50.618;7.024;2023-05-10T07:28:38;3.50;;;2.30;;
27163;SDS011;14685;50.618;7.024;2023-05-10T07:31:06;4.93;;;2.42;;
27163;SDS011;14685;50.618;7.024;2023-05-10T07:33:33;3.17;;;2.38;;
27163;SDS011;14685;50.618;7.024;2023-05-10T07:36:01;4.28;;;2.30;;
27163;SDS011;14685;50.618;7.024;2023-05-10T07:38:29;4.20;;;2.65;;
27163;SDS011;14685;50.618;7.024;2023-05-10T07:40:56;2.00;;;1.85;;
27163;SDS011;14685;50.618;7.024;2023-05-10T07:43:23;7.75;;;1.95;;
27163;SDS011;14685;50.618;7.024;2023-05-10T07:45:50;3.00;;;2.22;;
27163;SDS011;14685;50.618;7.024;2023-05-10T07:48:20;2.50;;;1.80;;
27163;SDS011;14685;50.618;7.024;2023-05-10T07:50:47;4.13;;;2.30;;
27163;SDS011;14685;50.618;7.024;2023-05-10T07:53:14;2.60;;;2.00;;
27163;SDS011;14685;50.618;7.024;2023-05-10T07:55:41;2.10;;;1.80;;
27163;SDS011;14685;50.618;7.024;2023-05-10T07:58:10;3.53;;;1.73;;
27163;SDS011;14685;50.618;7.024;2023-05-10T08:00:37;4.15;;;2.10;;
27163;SDS011;14685;50.618;7.024;2023-05-10T08:03:08;2.42;;;1.90;;
27163;SDS011;14685;50.618;7.024;2023-05-10T08:05:36;1.90;;;1.75;;
27163;SDS011;14685;50.618;7.024;2023-05-10T08:08:04;4.43;;;1.55;;
27163;SDS011;14685;50.618;7.024;2023-05-10T08:10:32;2.60;;;1.90;;
27163;SDS011;14685;50.618;7.024;2023-05-10T08:12:59;3.75;;;2.08;;
27163;SDS011;14685;50.618;7.024;2023-05-10T08:15:27;2.92;;;1.83;;
27163;SDS011;14685;50.618;7.024;2023-05-10T08:17:58;2.20;;;2.00;;
27163;SDS011;14685;50.618;7.024;2023-05-10T08:20:25;1.95;;;1.70;;
27163;SDS011;14685;50.618;7.024;2023-05-10T08:22:52;2.20;;;1.88;;
27163;SDS011;14685;50.618;7.024;2023-05-10T08:25:20;3.28;;;1.95;;
27163;SDS011;14685;50.618;7.024;2023-05-10T08:27:47;1.88;;;1.63;;
27163;SDS011;14685;50.618;7.024;2023-05-10T08:30:15;2.85;;;1.70;;
27163;SDS011;14685;50.618;7.024;2023-05-10T08:32:42;2.58;;;1.60;;
27163;SDS011;14685;50.618;7.024;2023-05-10T08:35:15;3.72;;;1.30;;
27163;SDS011;14685;50.618;7.024;2023-05-10T08:37:42;1.48;;;1.15;;
27163;SDS011;14685;50.618;7.024;2023-05-10T08:40:11;2.60;;;0.90;;
27163;SDS011;14685;50.618;7.024;2023-05-10T08:42:39;0.98;;;0.90;;
27163;SDS011;14685;50.618;7.024;2023-05-10T08:45:09;4.00;;;1.27;;
27163;SDS011;14685;50.618;7.024;2023-05-10T08:47:37;1.85;;;0.80;;
27163;SDS011;14685;50.618;7.024;2023-05-10T08:50:05;3.65;;;0.70;;
27163;SDS011;14685;50.618;7.024;2023-05-10T08:52:33;1.50;;;0.88;;
27163;SDS011;14685;50.618;7.024;2023-05-10T08:55:06;1.13;;;0.63;;
27163;SDS011;14685;50.618;7.024;2023-05-10T08:57:35;0.60;;;0.60;;
27163;SDS011;14685;50.618;7.024;2023-05-10T09:00:02;0.98;;;0.50;;
27163;SDS011;14685;50.618;7.024;2023-05-10T09:02:30;0.65;;;0.65;;
27163;SDS011;14685;50.618;7.024;2023-05-10T09:04:57;0.60;;;0.60;;
27163;SDS011;14685;50.618;7.024;2023-05-10T09:07:24;1.95;;;0.80;;
27163;SDS011;14685;50.618;7.024;2023-05-10T09:09:51;0.57;;;0.57;;
27163;SDS011;14685;50.618;7.024;2023-05-10T09:12:21;1.15;;;0.63;;
27163;SDS011;14685;50.618;7.024;2023-05-10T09:14:49;0.60;;;0.60;;
27163;SDS011;14685;50.618;7.024;2023-05-10T09:17:18;0.77;;;0.70;;
27163;SDS011;14685;50.618;7.024;2023-05-10T09:19:49;0.77;;;0.70;;
27163;SDS011;14685;50.618;7.024;2023-05-10T09:22:16;0.82;;;0.77;;
27163;SDS011;14685;50.618;7.024;2023-05-10T09:24:44;1.00;;;0.90;;
27163;SDS011;14685;50.618;7.024;2023-05-10T09:27:11;1.30;;;1.20;;
27163;SDS011;14685;50.618;7.024;2023-05-10T09:29:39;1.90;;;1.80;;
27163;SDS011;14685;50.618;7.024;2023-05-10T09:32:07;2.08;;;1.20;;
27163;SDS011;14685;50.618;7.024;2023-05-10T09:34:35;1.40;;;1.30;;
27163;SDS011;14685;50.618;7.024;2023-05-10T09:37:07;1.27;;;0.98;;
27163;SDS011;14685;50.618;7.024;2023-05-10T09:39:35;3.78;;;0.98;;
27163;SDS011;14685;50.618;7.024;2023-05-10T09:42:07;0.95;;;0.95;;
27163;SDS011;14685;50.618;7.024;2023-05-10T09:44:36;1.20;;;1.10;;
27163;SDS011;14685;50.618;7.024;2023-05-10T09:47:05;0.98;;;0.70;;
27163;SDS011;14685;50.618;7.024;2023-05-10T09:49:32;1.88;;;0.63;;
27163;SDS011;14685;50.618;7.024;2023-05-10T09:52:00;2.97;;;0.82;;
27163;SDS011;14685;50.618;7.024;2023-05-10T09:54:29;1.45;;;0.75;;
27163;SDS011;14685;50.618;7.024;2023-05-10T09:56:56;0.95;;;0.93;;
27163;SDS011;14685;50.618;7.024;2023-05-10T09:59:24;0.88;;;0.75;;
27163;SDS011;14685;50.618;7.024;2023-05-10T10:01:57;1.40;;;1.30;;
27163;SDS011;14685;50.618;7.024;2023-05-10T10:04:26;1.17;;;1.02;;
27163;SDS011;14685;50.618;7.024;2023-05-10T10:07:02;1.10;;;1.00;;
27163;SDS011;14685;50.618;7.024;2023-05-10T10:09:31;0.95;;;0.90;;
27163;SDS011;14685;50.618;7.024;2023-05-10T10:12:02;0.80;;;0.80;;
27163;SDS011;14685;50.618;7.024;2023-05-10T10:14:30;1.95;;;1.00;;
27163;SDS011;14685;50.618;7.024;2023-05-10T10:16:57;0.80;;;0.80;;
27163;SDS011;14685;50.618;7.024;2023-05-10T10:19:30;1.52;;;0.80;;
27163;SDS011;14685;50.618;7.024;2023-05-10T10:22:02;0.80;;;0.63;;
27163;SDS011;14685;50.618;7.024;2023-05-10T10:24:29;0.93;;;0.73;;
27163;SDS011;14685;50.618;7.024;2023-05-10T10:26:57;1.40;;;0.77;;
27163;SDS011;14685;50.618;7.024;2023-05-10T10:29:47;1.10;;;0.70;;
27163;SDS011;14685;50.618;7.024;2023-05-10T10:32:21;0.77;;;0.75;;
27163;SDS011;14685;50.618;7.024;2023-05-10T10:34:54;0.60;;;0.60;;
27163;SDS011;14685;50.618;7.024;2023-05-10T10:37:23;0.88;;;0.88;;
27163;SDS011;14685;50.618;7.024;2023-05-10T10:40:22;0.77;;;0.60;;
27163;SDS011;14685;50.618;7.024;2023-05-10T10:48:49;0.82;;;0.82;;
27163;SDS011;14685;50.618;7.024;2023-05-10T10:51:38;1.02;;;0.80;;
27163;SDS011;14685;50.618;7.024;2023-05-10T10:54:09;1.35;;;0.80;;
27163;SDS011;14685;50.618;7.024;2023-05-10T10:56:37;1.00;;;0.82;;
27163;SDS011;14685;50.618;7.024;2023-05-10T10:59:04;0.65;;;0.65;;
27163;SDS011;14685;50.618;7.024;2023-05-10T11:01:35;0.70;;;0.70;;
27163;SDS011;14685;50.618;7.024;2023-05-10T11:06:30;0.70;;;0.70;;
27163;SDS011;14685;50.618;7.024;2023-05-10T11:08:58;0.63;;;0.63;;
27163;SDS011;14685;50.618;7.024;2023-05-10T11:11:29;4.10;;;1.60;;
27163;SDS011;14685;50.618;7.024;2023-05-10T11:14:02;6.15;;;3.33;;
27163;SDS011;14685;50.618;7.024;2023-05-10T11:16:42;15.85;;;7.55;;
27163;SDS011;14685;50.618;7.024;2023-05-10T11:19:11;0.68;;;0.68;;
27163;SDS011;14685;50.618;7.024;2023-05-10T11:24:20;0.50;;;0.50;;
27163;SDS011;14685;50.618;7.024;2023-05-10T11:26:52;0.60;;;0.60;;
27163;SDS011;14685;50.618;7.024;2023-05-10T11:29:20;3.13;;;0.63;;
27163;SDS011;14685;50.618;7.024;2023-05-10T11:31:47;0.50;;;0.50;;
27163;SDS011;14685;50.618;7.024;2023-05-10T11:34:24;1.02;;;0.70;;
27163;SDS011;14685;50.618;7.024;2023-05-10T11:36:55;0.52;;;0.52;;
27163;SDS011;14685;50.618;7.024;2023-05-10T11:39:25;0.65;;;0.50;;
27163;SDS011;14685;50.618;7.024;2023-05-10T11:41:56;0.50;;;0.50;;
27163;SDS011;14685;50.618;7.024;2023-05-10T11:44:30;2.15;;;0.77;;
27163;SDS011;14685;50.618;7.024;2023-05-10T11:47:00;0.60;;;0.60;;
27163;SDS011;14685;50.618;7.024;2023-05-10T11:49:28;0.50;;;0.50;;
27163;SDS011;14685;50.618;7.024;2023-05-10T11:52:07;0.60;;;0.60;;
27163;SDS011;14685;50.618;7.024;2023-05-10T11:54:36;0.52;;;0.52;;
27163;SDS011;14685;50.618;7.024;2023-05-10T11:57:04;1.77;;;0.90;;
27163;SDS011;14685;50.618;7.024;2023-05-10T11:59:33;0.63;;;0.63;;
27163;SDS011;14685;50.618;7.024;2023-05-10T12:02:00;0.70;;;0.70;;
27163;SDS011;14685;50.618;7.024;2023-05-10T12:04:28;1.05;;;0.90;;
27163;SDS011;14685;50.618;7.024;2023-05-10T12:06:56;1.95;;;1.00;;
27163;SDS011;14685;50.618;7.024;2023-05-10T12:09:23;0.60;;;0.60;;
27163;SDS011;14685;50.618;7.024;2023-05-10T12:12:08;2.58;;;0.88;;
27163;SDS011;14685;50.618;7.024;2023-05-10T12:14:36;1.50;;;0.70;;
27163;SDS011;14685;50.618;7.024;2023-05-10T12:17:03;0.90;;;0.90;;
27163;SDS011;14685;50.618;7.024;2023-05-10T12:19:36;1.58;;;1.20;;
27163;SDS011;14685;50.618;7.024;2023-05-10T12:22:08;3.70;;;1.08;;
27163;SDS011;14685;50.618;7.024;2023-05-10T12:24:35;1.52;;;0.80;;
27163;SDS011;14685;50.618;7.024;2023-05-10T12:27:04;1.27;;;0.80;;
27163;SDS011;14685;50.618;7.024;2023-05-10T12:29:34;1.30;;;1.00;;
27163;SDS011;14685;50.618;7.024;2023-05-10T12:32:01;1.65;;;0.98;;
27163;SDS011;14685;50.618;7.024;2023-05-10T12:34:33;1.05;;;0.70;;
27163;SDS011;14685;50.618;7.024;2023-05-10T12:37:02;0.90;;;0.90;;
27163;SDS011;14685;50.618;7.024;2023-05-10T12:42:10;2.17;;;1.10;;
27163;SDS011;14685;50.618;7.024;2023-05-10T12:44:37;1.40;;;1.30;;
27163;SDS011;14685;50.618;7.024;2023-05-10T12:47:04;1.90;;;1.73;;
27163;SDS011;14685;50.618;7.024;2023-05-10T12:49:32;1.70;;;1.60;;
27163;SDS011;14685;50.618;7.024;2023-05-10T12:52:00;1.60;;;1.50;;
27163;SDS011;14685;50.618;7.024;2023-05-10T12:54:27;3.35;;;1.45;;
27163;SDS011;14685;50.618;7.024;2023-05-10T12:56:54;1.80;;;1.70;;
27163;SDS011;14685;50.618;7.024;2023-05-10T12:59:21;1.67;;;1.58;;
27163;SDS011;14685;50.618;7.024;2023-05-10T13:01:49;2.53;;;1.67;;
27163;SDS011;14685;50.618;7.024;2023-05-10T13:04:16;2.00;;;1.48;;
27163;SDS011;14685;50.618;7.024;2023-05-10T13:06:43;1.83;;;1.73;;
27163;SDS011;14685;50.618;7.024;2023-05-10T13:09:10;1.92;;;1.42;;
27163;SDS011;14685;50.618;7.024;2023-05-10T13:11:37;1.25;;;1.13;;
27163;SDS011;14685;50.618;7.024;2023-05-10T13:14:04;1.40;;;1.30;;
27163;SDS011;14685;50.618;7.024;2023-05-10T13:16:32;1.30;;;1.20;;
27163;SDS011;14685;50.618;7.024;2023-05-10T13:18:59;2.92;;;1.15;;
27163;SDS011;14685;50.618;7.024;2023-05-10T13:21:29;1.10;;;1.00;;
27163;SDS011;14685;50.618;7.024;2023-05-10T13:23:56;1.52;;;1.20;;
27163;SDS011;14685;50.618;7.024;2023-05-10T13:26:24;0.95;;;0.95;;
27163;SDS011;14685;50.618;7.024;2023-05-10T13:28:52;1.17;;;0.82;;
27163;SDS011;14685;50.618;7.024;2023-05-10T13:31:21;1.27;;;1.13;;
27163;SDS011;14685;50.618;7.024;2023-05-10T13:33:50;1.27;;;1.17;;
27163;SDS011;14685;50.618;7.024;2023-05-10T13:36:19;1.15;;;1.05;;
27163;SDS011;14685;50.618;7.024;2023-05-10T13:38:46;1.75;;;1.17;;
27163;SDS011;14685;50.618;7.024;2023-05-10T13:41:13;1.23;;;0.90;;
27163;SDS011;14685;50.618;7.024;2023-05-10T13:43:42;1.55;;;1.30;;
27163;SDS011;14685;50.618;7.024;2023-05-10T13:46:11;1.65;;;1.20;;
27163;SDS011;14685;50.618;7.024;2023-05-10T13:48:38;2.13;;;1.23;;
27163;SDS011;14685;50.618;7.024;2023-05-10T13:51:09;1.20;;;0.93;;
27163;SDS011;14685;50.618;7.024;2023-05-10T13:53:38;2.72;;;1.10;;
27163;SDS011;14685;50.618;7.024;2023-05-10T13:56:05;1.65;;;1.00;;
27163;SDS011;14685;50.618;7.024;2023-05-10T13:58:33;1.42;;;1.15;;
27163;SDS011;14685;50.618;7.024;2023-05-10T14:01:03;2.42;;;1.50;;
27163;SDS011;14685;50.618;7.024;2023-05-10T14:03:32;4.55;;;1.80;;
27163;SDS011;14685;50.618;7.024;2023-05-10T14:06:00;1.42;;;1.10;;
27163;SDS011;14685;50.618;7.024;2023-05-10T14:08:28;1.30;;;1.20;;
27163;SDS011;14685;50.618;7.024;2023-05-10T14:10:55;3.47;;;1.15;;
27163;SDS011;14685;50.618;7.024;2023-05-10T14:13:23;1.50;;;1.20;;
27163;SDS011;14685;50.618;7.024;2023-05-10T14:15:52;1.30;;;1.13;;
27163;SDS011;14685;50.618;7.024;2023-05-10T14:18:21;3.10;;;1.20;;
27163;SDS011;14685;50.618;7.024;2023-05-10T14:20:51;1.38;;;1.27;;
27163;SDS011;14685;50.618;7.024;2023-05-10T14:23:18;1.48;;;1.17;;
27163;SDS011;14685;50.618;7.024;2023-05-10T14:25:51;3.10;;;1.50;;
27163;SDS011;14685;50.618;7.024;2023-05-10T14:28:19;4.05;;;2.00;;
27163;SDS011;14685;50.618;7.024;2023-05-10T14:30:48;3.67;;;2.22;;
27163;SDS011;14685;50.618;7.024;2023-05-10T14:33:16;3.55;;;1.95;;
27163;SDS011;14685;50.618;7.024;2023-05-10T14:35:43;2.67;;;2.42;;
27163;SDS011;14685;50.618;7.024;2023-05-10T14:38:12;2.00;;;1.80;;
27163;SDS011;14685;50.618;7.024;2023-05-10T14:40:39;2.13;;;1.92;;
27163;SDS011;14685;50.618;7.024;2023-05-10T14:43:06;3.55;;;2.17;;
27163;SDS011;14685;50.618;7.024;2023-05-10T14:45:34;2.38;;;2.17;;
27163;SDS011;14685;50.618;7.024;2023-05-10T14:48:03;1.75;;;1.65;;
27163;SDS011;14685;50.618;7.024;2023-05-10T14:50:31;2.83;;;2.10;;
27163;SDS011;14685;50.618;7.024;2023-05-10T14:53:02;2.50;;;2.20;;
27163;SDS011;14685;50.618;7.024;2023-05-10T14:55:30;3.45;;;2.17;;
27163;SDS011;14685;50.618;7.024;2023-05-10T14:57:56;3.30;;;2.28;;
27163;SDS011;14685;50.618;7.024;2023-05-10T15:00:26;3.33;;;1.92;;
27163;SDS011;14685;50.618;7.024;2023-05-10T15:02:58;3.38;;;1.77;;
27163;SDS011;14685;50.618;7.024;2023-05-10T15:05:25;2.70;;;1.90;;
27163;SDS011;14685;50.618;7.024;2023-05-10T15:07:53;4.47;;;1.80;;
27163;SDS011;14685;50.618;7.024;2023-05-10T15:10:21;2.10;;;1.70;;
27163;SDS011;14685;50.618;7.024;2023-05-10T15:12:48;4.32;;;2.00;;
27163;SDS011;14685;50.618;7.024;2023-05-10T15:15:16;3.75;;;1.90;;
27163;SDS011;14685;50.618;7.024;2023-05-10T15:17:43;2.15;;;1.92;;
27163;SDS011;14685;50.618;7.024;2023-05-10T15:20:10;2.45;;;2.05;;
27163;SDS011;14685;50.618;7.024;2023-05-10T15:22:39;5.93;;;2.30;;
27163;SDS011;14685;50.618;7.024;2023-05-10T15:25:07;1.95;;;1.30;;
27163;SDS011;14685;50.618;7.024;2023-05-10T15:27:36;1.83;;;1.10;;